Iron Queen — MVNW9 — position and weather

sailwx.info

Track history (hours):
 
Tides and Currents Weather Stations Pressure Air Temp Water Temp Dewpoint Dewpoint Depression Visibility Wind Speed Wind Dir Waves Ship Positions

Iron Queen

Last reported at 2014-Nov-12 13:07 UTC. Time now 2014-Nov-24 07:01 UTC.
Position S 22°57' E 154°05'.
Warning: this ship's position is 11 days out of date.

Length 280 m; draft 15.4 m.

Type: Cargo ship. MMSI: 234112000.

Date/timePositionNaut miles runAvg speedWind from/ knotsBaromVisibWave heightAir tempDewpointWater temp
2014-Nov-12 13:07S 22°57' E 154°05'13811.5
2014-Nov-12 01:08S 25°15' E 154°05'1910.9
2014-Nov-11 23:26S 25°34' E 154°05'1111.0
2014-Nov-11 22:27S 25°45' E 154°05'1010.9
2014-Nov-11 21:34S 25°54' E 154°05'1010.4
2014-Nov-11 20:33S 26°05' E 154°05'1010.0
2014-Nov-11 19:33S 26°15' E 154°06'9 9.1
2014-Nov-11 18:34S 26°24' E 154°05'6410.0
2014-Nov-11 12:09S 27°28' E 154°05'910.7
2014-Nov-11 11:16S 27°38' E 154°05'811.0
2014-Nov-11 10:32S 27°46' E 154°06'1110.9
2014-Nov-11 09:33S 27°56' E 154°05'1111.0
2014-Nov-11 08:31S 28°08' E 154°05'27410.4
2014-Nov-10 06:16S 32°32' E 152°42'811.7
2014-Nov-10 05:33S 32°39' E 152°37'1211.8
2014-Nov-10 04:31S 32°50' E 152°30'1111.2
2014-Nov-10 03:33S 32°54' E 152°18'1110.9
2014-Nov-10 02:34S 32°57' E 152°06'1110.7
2014-Nov-10 01:33S 32°57' E 151°53'6 6.2
2014-Nov-10 00:34S 32°55' E 151°46'2 2.0
2014-Nov-09 23:28S 32°53' E 151°45'0 0.0
2014-Nov-09 22:28S 32°53' E 151°45'0 0.0
2014-Nov-09 21:16S 32°53' E 151°45'0 0.0
2014-Nov-09 19:10S 32°53' E 151°45'0 0.0
2014-Nov-09 18:28S 32°53' E 151°45'0 0.0
2014-Nov-09 17:31S 32°53' E 151°45'0 0.0
2014-Nov-09 16:28S 32°53' E 151°45'0 0.0
2014-Nov-09 15:22S 32°53' E 151°45'0 0.0
2014-Nov-09 14:28S 32°53' E 151°45'0 0.0
2014-Nov-09 13:28S 32°53' E 151°45'0 0.0
2014-Nov-09 12:31S 32°53' E 151°45'0 0.0
2014-Nov-09 11:31S 32°53' E 151°45'0 0.0
2014-Nov-09 10:28S 32°53' E 151°45'0 0.0
2014-Nov-09 09:25S 32°53' E 151°45'0 0.0
2014-Nov-09 08:28S 32°53' E 151°45'0 0.0
2014-Nov-09 07:28S 32°53' E 151°45'0 0.0
2014-Nov-09 06:16S 32°53' E 151°45'0 0.0
2014-Nov-09 05:28S 32°53' E 151°45'0 0.0
2014-Nov-09 04:28S 32°53' E 151°45'0 0.0
2014-Nov-09 03:28S 32°53' E 151°45'0 0.0
2014-Nov-09 02:28S 32°53' E 151°45'0 0.0
2014-Nov-09 01:16S 32°53' E 151°45'0 0.0
2014-Nov-09 00:22S 32°53' E 151°45'0 0.0
2014-Nov-08 23:28S 32°53' E 151°45'0 0.0
2014-Nov-08 22:28S 32°53' E 151°45'0 0.0
2014-Nov-08 21:28S 32°53' E 151°45'0 0.0
2014-Nov-08 20:31S 32°53' E 151°45'0 0.0
2014-Nov-08 19:28S 32°53' E 151°45'0 0.0
2014-Nov-08 18:31S 32°53' E 151°45'0 0.0
2014-Nov-08 17:28S 32°53' E 151°45'0 0.0
2014-Nov-08 16:28S 32°53' E 151°45'0 0.0
2014-Nov-08 15:28S 32°53' E 151°45'0 0.0
2014-Nov-08 14:28S 32°53' E 151°45'0 0.0
2014-Nov-08 13:28S 32°53' E 151°45'0 0.0
2014-Nov-08 12:28S 32°53' E 151°45'0 0.2
2014-Nov-08 11:33S 32°53' E 151°45'3 3.1
2014-Nov-08 10:32S 32°55' E 151°48'5 4.2
2014-Nov-08 09:27S 32°58' E 151°52'5 5.1
2014-Nov-08 08:33S 32°58' E 151°57'9 9.3
2014-Nov-08 07:33S 32°57' E 152°09'1212.4
2014-Nov-08 06:33S 32°52' E 152°22'1312.7
2014-Nov-08 05:33S 32°43' E 152°32'1313.0
2014-Nov-08 04:32S 32°31' E 152°40'5312.2
2014-Nov-08 00:10S 31°45' E 153°11'  
Track history (hours):
 
Tides and Currents Weather Stations Pressure Air Temp Water Temp Dewpoint Dewpoint Depression Visibility Wind Speed Wind Dir Waves Ship Positions

Iron Queen

Last reported at 2014-Nov-12 13:07 UTC. Time now 2014-Nov-24 07:01 UTC.
Position S 22°57' E 154°05'.
Warning: this ship's position is 11 days out of date.

Length 280 m; draft 15.4 m.

Type: Cargo ship. MMSI: 234112000.

Date/timePositionNaut miles runAvg speedWind from/ knotsBaromVisibWave heightAir tempDewpointWater temp
2014-Nov-12 13:07S 22°57' E 154°05'13811.5
2014-Nov-12 01:08S 25°15' E 154°05'1910.9
2014-Nov-11 23:26S 25°34' E 154°05'1111.0
2014-Nov-11 22:27S 25°45' E 154°05'1010.9
2014-Nov-11 21:34S 25°54' E 154°05'1010.4
2014-Nov-11 20:33S 26°05' E 154°05'1010.0
2014-Nov-11 19:33S 26°15' E 154°06'9 9.1
2014-Nov-11 18:34S 26°24' E 154°05'6410.0
2014-Nov-11 12:09S 27°28' E 154°05'910.7
2014-Nov-11 11:16S 27°38' E 154°05'811.0
2014-Nov-11 10:32S 27°46' E 154°06'1110.9
2014-Nov-11 09:33S 27°56' E 154°05'1111.0
2014-Nov-11 08:31S 28°08' E 154°05'27410.4
2014-Nov-10 06:16S 32°32' E 152°42'811.7
2014-Nov-10 05:33S 32°39' E 152°37'1211.8
2014-Nov-10 04:31S 32°50' E 152°30'1111.2
2014-Nov-10 03:33S 32°54' E 152°18'1110.9
2014-Nov-10 02:34S 32°57' E 152°06'1110.7
2014-Nov-10 01:33S 32°57' E 151°53'6 6.2
2014-Nov-10 00:34S 32°55' E 151°46'2 2.0
2014-Nov-09 23:28S 32°53' E 151°45'0 0.0
2014-Nov-09 22:28S 32°53' E 151°45'0 0.0
2014-Nov-09 21:16S 32°53' E 151°45'0 0.0
2014-Nov-09 19:10S 32°53' E 151°45'0 0.0
2014-Nov-09 18:28S 32°53' E 151°45'0 0.0
2014-Nov-09 17:31S 32°53' E 151°45'0 0.0
2014-Nov-09 16:28S 32°53' E 151°45'0 0.0
2014-Nov-09 15:22S 32°53' E 151°45'0 0.0
2014-Nov-09 14:28S 32°53' E 151°45'0 0.0
2014-Nov-09 13:28S 32°53' E 151°45'0 0.0
2014-Nov-09 12:31S 32°53' E 151°45'0 0.0
2014-Nov-09 11:31S 32°53' E 151°45'0 0.0
2014-Nov-09 10:28S 32°53' E 151°45'0 0.0
2014-Nov-09 09:25S 32°53' E 151°45'0 0.0
2014-Nov-09 08:28S 32°53' E 151°45'0 0.0
2014-Nov-09 07:28S 32°53' E 151°45'0 0.0
2014-Nov-09 06:16S 32°53' E 151°45'0 0.0
2014-Nov-09 05:28S 32°53' E 151°45'0 0.0
2014-Nov-09 04:28S 32°53' E 151°45'0 0.0
2014-Nov-09 03:28S 32°53' E 151°45'0 0.0
2014-Nov-09 02:28S 32°53' E 151°45'0 0.0
2014-Nov-09 01:16S 32°53' E 151°45'0 0.0
2014-Nov-09 00:22S 32°53' E 151°45'0 0.0
2014-Nov-08 23:28S 32°53' E 151°45'0 0.0
2014-Nov-08 22:28S 32°53' E 151°45'0 0.0
2014-Nov-08 21:28S 32°53' E 151°45'0 0.0
2014-Nov-08 20:31S 32°53' E 151°45'0 0.0
2014-Nov-08 19:28S 32°53' E 151°45'0 0.0
2014-Nov-08 18:31S 32°53' E 151°45'0 0.0
2014-Nov-08 17:28S 32°53' E 151°45'0 0.0
2014-Nov-08 16:28S 32°53' E 151°45'0 0.0
2014-Nov-08 15:28S 32°53' E 151°45'0 0.0
2014-Nov-08 14:28S 32°53' E 151°45'0 0.0
2014-Nov-08 13:28S 32°53' E 151°45'0 0.0
2014-Nov-08 12:28S 32°53' E 151°45'0 0.2
2014-Nov-08 11:33S 32°53' E 151°45'3 3.1
2014-Nov-08 10:32S 32°55' E 151°48'5 4.2
2014-Nov-08 09:27S 32°58' E 151°52'5 5.1
2014-Nov-08 08:33S 32°58' E 151°57'9 9.3
2014-Nov-08 07:33S 32°57' E 152°09'1212.4
2014-Nov-08 06:33S 32°52' E 152°22'1312.7
2014-Nov-08 05:33S 32°43' E 152°32'1313.0
2014-Nov-08 04:32S 32°31' E 152°40'5312.2
2014-Nov-08 00:10S 31°45' E 153°11'  

Dump ship's entire track history